Hovedside
METAR-TAF:

METAR-TAF

Lufthavner :

Wideawake Field

Georgetown, Ascension

breddegrad: 07-58S, lengdegrad: 014-24W, høyde over havet: 86 m

METAR: fraværende

Tid: 12:15 (12:15 UTC)

Varsel

Denne rapporten ble laget for 2 timer og 5 minutter siden, klokken 10:10 UTC
Varsel gyldig fra 18. klokken 12 UTC til 19. klokken 06 UTC
Vind 15 kt fra Sørøst
Sikt 10 km eller mer
Få skyer i en høyde av 1500 ft
Spredte skyer i en høyde av 2500 ft
Sannsynlighet 30% :
Midlertidig
fra 18. klokken 16 UTC til 19. klokken 06 UTC
Sikt: 6000 m
Spredte skyer i en høyde av 1200 ft
Brutte skyer i en høyde av 2200 ft
lette regnbyger

TAF: FHAW 181010Z 1812/1906 14015KT 9999 FEW015 SCT025 PROB30 TEMPO 1816/1906 6000 -SHRA SCT012 BKN022

Værobservasjoner og værvarsel for over 4000 flyplasser (METAR- og TAF-rapporter).

Tilgjengelige stasjoner er representert av de røde og gule prikkene på kartet.

Hold musepekeren over prikken for å se navnet på stasjonen.

Klikk så for å se værobservasjoner og -varsler.

For å forandre kartet kan du klikke på den grønne knappen med svart kryss for å zoome inn, på den grønne knappen med strek for å zoome ut, eller på de grønne pilene for å se tilstøtende kart.


METAR-TAF: